createdAt,value
2023-05-18T00:00:27.121Z,95405.00
2023-05-18T00:01:27.112Z,95409.00
2023-05-18T00:02:27.154Z,95407.00
2023-05-18T00:03:27.176Z,95407.00
2023-05-18T00:04:27.126Z,95408.00
2023-05-18T00:05:27.122Z,95409.00
2023-05-18T00:06:27.139Z,95408.00
2023-05-18T00:07:27.141Z,95407.00
2023-05-18T00:08:27.208Z,95406.00
2023-05-18T00:09:27.218Z,95405.00
2023-05-18T00:10:27.230Z,95405.00
2023-05-18T00:11:27.194Z,95404.00
2023-05-18T00:12:27.243Z,95405.00
2023-05-18T00:13:27.237Z,95405.00
2023-05-18T00:14:27.271Z,95403.00
2023-05-18T00:15:27.455Z,95405.00
2023-05-18T00:16:27.322Z,95406.00
2023-05-18T00:17:27.364Z,95404.00
2023-05-18T00:18:27.295Z,95402.00
2023-05-18T00:19:27.366Z,95400.00
2023-05-18T00:20:27.337Z,95401.00
2023-05-18T00:21:27.338Z,95399.00
2023-05-18T00:22:27.430Z,95400.00
2023-05-18T00:23:27.384Z,95399.00
2023-05-18T00:24:27.383Z,95399.00
2023-05-18T00:25:27.428Z,95402.00
2023-05-18T00:26:27.438Z,95402.00
2023-05-18T00:27:27.474Z,95403.00
2023-05-18T00:28:27.416Z,95402.00
2023-05-18T00:29:27.465Z,95402.00
2023-05-18T00:30:29.311Z,95401.00
2023-05-18T00:31:27.516Z,95400.00
2023-05-18T00:32:27.510Z,95401.00
2023-05-18T00:33:27.492Z,95402.00
2023-05-18T00:34:27.489Z,95402.00
2023-05-18T00:35:27.622Z,95402.00
2023-05-18T00:36:27.501Z,95401.00
2023-05-18T00:37:27.544Z,95399.00
2023-05-18T00:38:27.540Z,95399.00
2023-05-18T00:39:27.560Z,95397.00
2023-05-18T00:40:27.560Z,95398.00
2023-05-18T00:41:27.573Z,95398.00
2023-05-18T00:42:27.585Z,95395.00
2023-05-18T00:43:27.620Z,95396.00
2023-05-18T00:44:27.625Z,95395.00
2023-05-18T00:45:27.665Z,95394.00
2023-05-18T00:46:27.734Z,95393.00
2023-05-18T00:47:27.695Z,95392.00
2023-05-18T00:48:27.674Z,95390.00
2023-05-18T00:49:27.701Z,95392.00
2023-05-18T00:50:27.751Z,95391.00
2023-05-18T00:51:27.742Z,95388.00
2023-05-18T00:52:27.776Z,95390.00
2023-05-18T00:53:27.767Z,95390.00
2023-05-18T00:54:27.838Z,95390.00
2023-05-18T00:55:28.002Z,95389.00
2023-05-18T00:56:27.833Z,95390.00
2023-05-18T00:57:27.857Z,95388.00
2023-05-18T00:58:27.840Z,95388.00
2023-05-18T00:59:27.866Z,95388.00
2023-05-18T01:00:27.884Z,95388.00
2023-05-18T01:01:27.904Z,95387.00
2023-05-18T01:02:27.976Z,95386.00
2023-05-18T01:03:27.982Z,95384.00
2023-05-18T01:04:27.990Z,95384.00
2023-05-18T01:05:28.183Z,95384.00
2023-05-18T01:06:28.032Z,95384.00
2023-05-18T01:07:28.046Z,95383.00
2023-05-18T01:08:28.045Z,95384.00
2023-05-18T01:09:28.077Z,95382.00
2023-05-18T01:10:28.114Z,95384.00
2023-05-18T01:11:28.169Z,95383.00
2023-05-18T01:12:28.170Z,95380.00
2023-05-18T01:13:28.203Z,95379.00
2023-05-18T01:14:30.539Z,95378.00
2023-05-18T01:15:28.477Z,95379.00
2023-05-18T01:16:28.482Z,95378.00
2023-05-18T01:17:28.485Z,95378.00
2023-05-18T01:18:28.446Z,95381.00
2023-05-18T01:19:28.455Z,95380.00
2023-05-18T01:20:28.480Z,95377.00
2023-05-18T01:21:28.488Z,95378.00
2023-05-18T01:22:28.521Z,95380.00
2023-05-18T01:23:28.556Z,95378.00
2023-05-18T01:24:28.523Z,95379.00
2023-05-18T01:25:28.730Z,95379.00
2023-05-18T01:26:28.610Z,95378.00
2023-05-18T01:27:28.583Z,95376.00
2023-05-18T01:28:28.622Z,95377.00
2023-05-18T01:29:28.609Z,95376.00
2023-05-18T01:30:28.627Z,95377.00
2023-05-18T01:31:29.425Z,95374.00
2023-05-18T01:32:28.709Z,95374.00
2023-05-18T01:33:28.692Z,95371.00
2023-05-18T01:34:28.727Z,95370.00
2023-05-18T01:35:28.909Z,95368.00
2023-05-18T01:36:28.735Z,95368.00
2023-05-18T01:37:28.750Z,95367.00
2023-05-18T01:38:28.776Z,95367.00
2023-05-18T01:39:28.776Z,95366.00
2023-05-18T01:40:28.791Z,95363.00
2023-05-18T01:41:28.802Z,95363.00
2023-05-18T01:42:28.869Z,95360.00
2023-05-18T01:43:28.878Z,95361.00
2023-05-18T01:44:28.866Z,95362.00
2023-05-18T01:45:29.128Z,95362.00
2023-05-18T01:46:29.021Z,95361.00
2023-05-18T01:47:28.973Z,95360.00
2023-05-18T01:48:28.983Z,95360.00
2023-05-18T01:49:28.993Z,95359.00
2023-05-18T01:50:29.034Z,95359.00
2023-05-18T01:51:29.038Z,95360.00
2023-05-18T01:52:29.065Z,95359.00
2023-05-18T01:53:29.085Z,95360.00
2023-05-18T01:54:29.172Z,95360.00
2023-05-18T01:55:29.332Z,95359.00
2023-05-18T01:56:29.177Z,95357.00
2023-05-18T01:57:29.197Z,95359.00
2023-05-18T01:58:29.228Z,95358.00
2023-05-18T01:59:29.248Z,95358.00
2023-05-18T02:00:29.287Z,95357.00
2023-05-18T02:01:29.315Z,95356.00
2023-05-18T02:02:29.388Z,95356.00
2023-05-18T02:03:29.461Z,95354.00
2023-05-18T02:04:29.342Z,95356.00
2023-05-18T02:05:29.619Z,95357.00
2023-05-18T02:06:29.417Z,95357.00
2023-05-18T02:07:29.444Z,95356.00
2023-05-18T02:08:29.473Z,95357.00
2023-05-18T02:09:29.502Z,95355.00
2023-05-18T02:10:29.569Z,95355.00
2023-05-18T02:11:29.525Z,95354.00
2023-05-18T02:12:29.564Z,95353.00
2023-05-18T02:13:29.607Z,95355.00
2023-05-18T02:14:29.624Z,95355.00
2023-05-18T02:15:29.872Z,95355.00
2023-05-18T02:16:29.685Z,95354.00
2023-05-18T02:17:29.690Z,95354.00
2023-05-18T02:18:29.745Z,95352.00
2023-05-18T02:19:29.818Z,95354.00
2023-05-18T02:20:30.393Z,95352.00
2023-05-18T02:21:29.784Z,95352.00
2023-05-18T02:22:29.781Z,95352.00
2023-05-18T02:23:29.860Z,95353.00
2023-05-18T02:24:29.890Z,95351.00
2023-05-18T02:25:30.054Z,95352.00
2023-05-18T02:26:29.880Z,95352.00
2023-05-18T02:27:29.933Z,95351.00
2023-05-18T02:28:29.932Z,95350.00
2023-05-18T02:29:29.950Z,95350.00
2023-05-18T02:30:29.988Z,95346.00
2023-05-18T02:31:30.061Z,95347.00
2023-05-18T02:32:30.106Z,95348.00
2023-05-18T02:33:30.043Z,95346.00
2023-05-18T02:34:30.055Z,95348.00
2023-05-18T02:35:30.301Z,95346.00
2023-05-18T02:36:30.110Z,95346.00
2023-05-18T02:37:30.122Z,95347.00
2023-05-18T02:38:30.170Z,95346.00
2023-05-18T02:39:30.189Z,95346.00
2023-05-18T02:40:30.170Z,95346.00
2023-05-18T02:41:30.169Z,95347.00
2023-05-18T02:42:30.207Z,95345.00
2023-05-18T02:43:30.245Z,95344.00
2023-05-18T02:44:30.269Z,95345.00
2023-05-18T02:45:30.697Z,95344.00
2023-05-18T02:46:30.345Z,95341.00
2023-05-18T02:47:30.404Z,95341.00
2023-05-18T02:48:30.394Z,95340.00
2023-05-18T02:49:30.406Z,95338.00
2023-05-18T02:50:30.439Z,95341.00
2023-05-18T02:51:30.460Z,95338.00
2023-05-18T02:52:30.485Z,95339.00
2023-05-18T02:53:30.505Z,95338.00
2023-05-18T02:54:30.591Z,95336.00
2023-05-18T02:55:30.753Z,95336.00
2023-05-18T02:56:30.616Z,95337.00
2023-05-18T02:57:30.662Z,95336.00
2023-05-18T02:58:30.660Z,95335.00
2023-05-18T02:59:30.686Z,95332.00
2023-05-18T03:00:30.728Z,95334.00
2023-05-18T03:01:30.900Z,95333.00
2023-05-18T03:02:30.825Z,95333.00
2023-05-18T03:03:30.915Z,95332.00
2023-05-18T03:04:30.851Z,95332.00
2023-05-18T03:05:31.031Z,95333.00
2023-05-18T03:06:30.908Z,95334.00
2023-05-18T03:07:30.935Z,95334.00
2023-05-18T03:08:30.975Z,95334.00
2023-05-18T03:09:31.032Z,95333.00
2023-05-18T03:10:31.039Z,95334.00
2023-05-18T03:11:31.041Z,95332.00
2023-05-18T03:12:31.073Z,95331.00
2023-05-18T03:13:31.114Z,95334.00
2023-05-18T03:14:31.135Z,95334.00
2023-05-18T03:15:31.464Z,95334.00
2023-05-18T03:16:31.288Z,95332.00
2023-05-18T03:17:31.270Z,95332.00
2023-05-18T03:18:31.259Z,95333.00
2023-05-18T03:19:31.333Z,95332.00
2023-05-18T03:20:31.305Z,95332.00
2023-05-18T03:21:31.369Z,95331.00
2023-05-18T03:22:31.392Z,95331.00
2023-05-18T03:23:31.430Z,95331.00
2023-05-18T03:24:31.452Z,95332.00
2023-05-18T03:25:31.637Z,95331.00
2023-05-18T03:26:31.526Z,95331.00
2023-05-18T03:27:31.550Z,95333.00
2023-05-18T03:28:31.569Z,95334.00
2023-05-18T03:29:31.805Z,95333.00
2023-05-18T03:30:31.643Z,95332.00
2023-05-18T03:31:31.726Z,95333.00
2023-05-18T03:32:31.804Z,95336.00
2023-05-18T03:33:31.750Z,95337.00
2023-05-18T03:34:31.742Z,95334.00
2023-05-18T03:35:31.980Z,95339.00
2023-05-18T03:36:31.808Z,95337.00
2023-05-18T03:37:31.865Z,95334.00
2023-05-18T03:38:31.894Z,95336.00
2023-05-18T03:39:31.930Z,95340.00
2023-05-18T03:40:31.932Z,95338.00
2023-05-18T03:41:31.986Z,95341.00
2023-05-18T03:42:32.019Z,95340.00
2023-05-18T03:43:32.075Z,95341.00
2023-05-18T03:44:32.076Z,95340.00
2023-05-18T03:45:32.197Z,95340.00
2023-05-18T03:46:32.218Z,95341.00
2023-05-18T03:47:32.246Z,95341.00
2023-05-18T03:48:32.219Z,95339.00
2023-05-18T03:49:32.270Z,95338.00
2023-05-18T03:50:32.305Z,95340.00
2023-05-18T03:51:32.319Z,95339.00
2023-05-18T03:52:32.350Z,95338.00
2023-05-18T03:53:32.398Z,95337.00
2023-05-18T03:54:32.423Z,95338.00
2023-05-18T03:55:32.655Z,95338.00
2023-05-18T03:56:32.488Z,95338.00
2023-05-18T03:57:32.524Z,95339.00
2023-05-18T03:58:32.581Z,95337.00
2023-05-18T03:59:32.623Z,95339.00
2023-05-18T04:00:32.630Z,95338.00
2023-05-18T04:01:32.769Z,95337.00
2023-05-18T04:02:32.867Z,95340.00
2023-05-18T04:03:32.825Z,95336.00
2023-05-18T04:04:32.775Z,95339.00
2023-05-18T04:05:32.908Z,95339.00
2023-05-18T04:06:32.883Z,95340.00
2023-05-18T04:07:32.898Z,95341.00
2023-05-18T04:08:32.960Z,95338.00
2023-05-18T04:09:32.983Z,95343.00
2023-05-18T04:10:33.027Z,95343.00
2023-05-18T04:11:33.057Z,95342.00
2023-05-18T04:12:33.101Z,95341.00
2023-05-18T04:13:33.135Z,95342.00
2023-05-18T04:14:33.201Z,95342.00
2023-05-18T04:15:33.223Z,95340.00
2023-05-18T04:16:33.320Z,95342.00
2023-05-18T04:17:33.349Z,95340.00
2023-05-18T04:18:33.356Z,95342.00
2023-05-18T04:19:33.399Z,95342.00
2023-05-18T04:20:33.403Z,95338.00
2023-05-18T04:21:33.422Z,95341.00
2023-05-18T04:22:33.475Z,95340.00
2023-05-18T04:23:33.536Z,95341.00
2023-05-18T04:24:33.602Z,95342.00
2023-05-18T04:25:33.647Z,95342.00
2023-05-18T04:26:33.648Z,95341.00
2023-05-18T04:27:33.676Z,95340.00
2023-05-18T04:28:33.732Z,95339.00
2023-05-18T04:29:33.737Z,95339.00
2023-05-18T04:30:33.795Z,95340.00
2023-05-18T04:31:33.870Z,95339.00
2023-05-18T04:32:33.887Z,95340.00
2023-05-18T04:33:33.898Z,95340.00
2023-05-18T04:34:33.925Z,95341.00
2023-05-18T04:35:33.946Z,95341.00
2023-05-18T04:36:33.964Z,95344.00
2023-05-18T04:37:34.014Z,95343.00
2023-05-18T04:38:34.019Z,95344.00
2023-05-18T04:39:34.841Z,95344.00
2023-05-18T04:40:34.388Z,95342.00
2023-05-18T04:41:34.124Z,95342.00
2023-05-18T04:42:34.161Z,95343.00
2023-05-18T04:43:34.174Z,95344.00
2023-05-18T04:44:34.234Z,95345.00
2023-05-18T04:45:34.571Z,95345.00
2023-05-18T04:46:34.268Z,95344.00
2023-05-18T04:47:34.295Z,95345.00
2023-05-18T04:48:34.341Z,95345.00
2023-05-18T04:49:34.369Z,95343.00
2023-05-18T04:50:34.371Z,95344.00
2023-05-18T04:51:34.445Z,95343.00
2023-05-18T04:52:34.449Z,95344.00
2023-05-18T04:53:34.462Z,95344.00
2023-05-18T04:54:34.503Z,95344.00
2023-05-18T04:55:34.735Z,95345.00
2023-05-18T04:56:34.581Z,95343.00
2023-05-18T04:57:34.630Z,95343.00
2023-05-18T04:58:34.660Z,95342.00
2023-05-18T04:59:34.673Z,95340.00
2023-05-18T05:00:34.742Z,95340.00
2023-05-18T05:01:34.828Z,95341.00
2023-05-18T05:02:34.916Z,95340.00
2023-05-18T05:03:34.985Z,95340.00
2023-05-18T05:04:34.906Z,95342.00
2023-05-18T05:05:34.939Z,95341.00
2023-05-18T05:06:35.038Z,95342.00
2023-05-18T05:07:35.872Z,95340.00
2023-05-18T05:08:35.109Z,95342.00
2023-05-18T05:09:35.161Z,95341.00
2023-05-18T05:10:35.249Z,95340.00
2023-05-18T05:11:35.256Z,95341.00
2023-05-18T05:12:35.294Z,95339.00
2023-05-18T05:13:35.355Z,95339.00
2023-05-18T05:14:35.392Z,95338.00
2023-05-18T05:15:35.562Z,95340.00
2023-05-18T05:16:35.482Z,95339.00
2023-05-18T05:17:35.556Z,95340.00
2023-05-18T05:18:35.604Z,95340.00
2023-05-18T05:19:35.597Z,95339.00
2023-05-18T05:20:35.624Z,95339.00
2023-05-18T05:21:35.675Z,95339.00
2023-05-18T05:22:35.782Z,95340.00
2023-05-18T05:23:35.730Z,95339.00
2023-05-18T05:24:35.776Z,95339.00
2023-05-18T05:25:35.811Z,95338.00
2023-05-18T05:26:35.866Z,95339.00
2023-05-18T05:27:35.893Z,95339.00
2023-05-18T05:28:35.976Z,95336.00
2023-05-18T05:29:35.977Z,95338.00
2023-05-18T05:30:36.043Z,95336.00
2023-05-18T05:31:36.158Z,95337.00
2023-05-18T05:32:36.294Z,95334.00
2023-05-18T05:33:36.150Z,95333.00
2023-05-18T05:34:36.189Z,95334.00
2023-05-18T05:35:36.499Z,95335.00
2023-05-18T05:36:36.270Z,95336.00
2023-05-18T05:37:36.378Z,95336.00
2023-05-18T05:38:36.355Z,95333.00
2023-05-18T05:39:36.378Z,95335.00
2023-05-18T05:40:36.425Z,95336.00
2023-05-18T05:41:36.484Z,95334.00
2023-05-18T05:42:36.508Z,95334.00
2023-05-18T05:43:36.576Z,95334.00
2023-05-18T05:44:36.609Z,95335.00
2023-05-18T05:45:36.639Z,95333.00
2023-05-18T05:46:36.746Z,95335.00
2023-05-18T05:47:36.755Z,95334.00
2023-05-18T05:48:36.752Z,95335.00
2023-05-18T05:49:36.823Z,95334.00
2023-05-18T05:50:36.835Z,95335.00
2023-05-18T05:51:36.910Z,95333.00
2023-05-18T05:52:36.927Z,95331.00
2023-05-18T05:53:36.958Z,95333.00
2023-05-18T05:54:37.071Z,95331.00
2023-05-18T05:55:37.029Z,95331.00
2023-05-18T05:56:37.036Z,95332.00
2023-05-18T05:57:37.074Z,95330.00
2023-05-18T05:58:37.149Z,95331.00
2023-05-18T05:59:37.193Z,95329.00
2023-05-18T06:00:37.197Z,95329.00
2023-05-18T06:01:37.251Z,95329.00
2023-05-18T06:02:37.397Z,95329.00
2023-05-18T06:03:37.353Z,95329.00
2023-05-18T06:04:37.358Z,95328.00
2023-05-18T06:05:37.370Z,95330.00
2023-05-18T06:06:37.373Z,95330.00
2023-05-18T06:07:37.444Z,95331.00
2023-05-18T06:08:37.448Z,95332.00
2023-05-18T06:09:37.502Z,95332.00
2023-05-18T06:10:37.540Z,95334.00
2023-05-18T06:11:37.533Z,95335.00
2023-05-18T06:12:37.590Z,95335.00
2023-05-18T06:13:37.660Z,95336.00
2023-05-18T06:14:37.675Z,95336.00
2023-05-18T06:15:37.737Z,95335.00
2023-05-18T06:16:37.765Z,95336.00
2023-05-18T06:17:37.780Z,95336.00
2023-05-18T06:18:38.402Z,95339.00
2023-05-18T06:19:37.822Z,95338.00
2023-05-18T06:20:37.831Z,95341.00
2023-05-18T06:21:37.886Z,95341.00
2023-05-18T06:22:37.903Z,95343.00
2023-05-18T06:23:41.005Z,95345.00
2023-05-18T06:24:37.927Z,95343.00
2023-05-18T06:25:37.903Z,95344.00
2023-05-18T06:26:37.900Z,95343.00
2023-05-18T06:28:19.072Z,95342.00
2023-05-18T06:29:19.075Z,95341.00
2023-05-18T06:30:19.111Z,95343.00
2023-05-18T06:31:19.132Z,95338.00
2023-05-18T06:32:19.105Z,95339.00
2023-05-18T06:33:19.090Z,95339.00
2023-05-18T06:34:19.037Z,95337.00
2023-05-18T06:35:19.045Z,95337.00
2023-05-18T06:36:19.010Z,95337.00
2023-05-18T06:37:19.045Z,95337.00
2023-05-18T06:38:19.027Z,95337.00
2023-05-18T06:39:19.005Z,95337.00
2023-05-18T06:40:19.017Z,95337.00
2023-05-18T06:41:19.022Z,95337.00
2023-05-18T06:42:18.985Z,95337.00
2023-05-18T06:43:19.013Z,95337.00
2023-05-18T06:44:18.967Z,95337.00
2023-05-18T06:45:18.990Z,95336.00
2023-05-18T06:46:18.994Z,95337.00
2023-05-18T06:47:18.950Z,95337.00
2023-05-18T06:48:18.973Z,95338.00
2023-05-18T06:49:18.959Z,95339.00
2023-05-18T06:50:18.959Z,95337.00
2023-05-18T06:51:18.960Z,95339.00
2023-05-18T06:52:18.920Z,95340.00
2023-05-18T06:53:18.948Z,95340.00
2023-05-18T06:54:18.917Z,95342.00
2023-05-18T06:55:18.922Z,95340.00
2023-05-18T06:56:18.930Z,95341.00
2023-05-18T06:57:18.874Z,95341.00
2023-05-18T06:58:18.889Z,95339.00
2023-05-18T06:59:18.879Z,95340.00
2023-05-18T07:00:18.889Z,95339.00
2023-05-18T07:01:18.899Z,95342.00
2023-05-18T07:02:18.875Z,95341.00
2023-05-18T07:03:18.918Z,95343.00
2023-05-18T07:04:18.842Z,95341.00
2023-05-18T07:05:18.860Z,95343.00
2023-05-18T07:06:18.853Z,95344.00
2023-05-18T07:07:18.830Z,95344.00
2023-05-18T07:08:18.917Z,95344.00
2023-05-18T07:09:18.844Z,95342.00
2023-05-18T07:10:18.821Z,95339.00
2023-05-18T07:11:18.807Z,95338.00
2023-05-18T07:12:18.799Z,95339.00
2023-05-18T07:13:18.798Z,95339.00
2023-05-18T07:14:18.781Z,95336.00
2023-05-18T07:15:18.764Z,95338.00
2023-05-18T07:16:18.817Z,95337.00
2023-05-18T07:17:18.752Z,95336.00
2023-05-18T07:18:18.760Z,95335.00
2023-05-18T07:19:18.816Z,95336.00
2023-05-18T07:20:18.783Z,95333.00
2023-05-18T07:21:18.753Z,95334.00
2023-05-18T07:22:18.732Z,95332.00
2023-05-18T07:23:18.728Z,95331.00
2023-05-18T07:24:18.745Z,95331.00
2023-05-18T07:25:42.584Z,95329.00
2023-05-18T07:26:42.582Z,95329.00
2023-05-18T07:27:42.539Z,95330.00
2023-05-18T07:28:42.552Z,95328.00
2023-05-18T07:29:42.532Z,95328.00
2023-05-18T07:30:42.536Z,95327.00
2023-05-18T07:31:42.563Z,95326.00
2023-05-18T07:32:42.553Z,95326.00
2023-05-18T07:33:42.564Z,95325.00
2023-05-18T07:34:42.521Z,95326.00
2023-05-18T07:35:42.525Z,95326.00
2023-05-18T07:36:42.526Z,95327.00
2023-05-18T07:37:42.518Z,95327.00
2023-05-18T07:38:42.497Z,95328.00
2023-05-18T07:39:42.467Z,95329.00
2023-05-18T07:40:42.490Z,95327.00
2023-05-18T07:41:42.455Z,95327.00
2023-05-18T07:42:42.457Z,95327.00
2023-05-18T07:43:42.465Z,95325.00
2023-05-18T07:44:42.448Z,95325.00
2023-05-18T07:45:42.441Z,95325.00
2023-05-18T07:46:42.518Z,95323.00
2023-05-18T07:47:42.527Z,95324.00
2023-05-18T07:48:42.425Z,95325.00
2023-05-18T07:49:42.424Z,95324.00
2023-05-18T07:50:42.451Z,95323.00
2023-05-18T07:51:42.454Z,95322.00
2023-05-18T07:52:42.414Z,95324.00
2023-05-18T07:53:42.417Z,95325.00
2023-05-18T07:54:42.409Z,95326.00
2023-05-18T07:55:42.406Z,95326.00
2023-05-18T07:56:42.384Z,95324.00
2023-05-18T07:57:42.542Z,95324.00
2023-05-18T07:58:42.363Z,95324.00
2023-05-18T07:59:42.385Z,95324.00
2023-05-18T08:00:42.338Z,95321.00
2023-05-18T08:01:42.328Z,95322.00
2023-05-18T08:02:42.523Z,95320.00
2023-05-18T08:03:42.529Z,95320.00
2023-05-18T08:04:42.310Z,95321.00
2023-05-18T08:05:42.350Z,95320.00
2023-05-18T08:06:42.307Z,95318.00
2023-05-18T08:07:42.318Z,95319.00
2023-05-18T08:08:42.288Z,95321.00
2023-05-18T08:09:42.277Z,95322.00
2023-05-18T08:10:42.384Z,95322.00
2023-05-18T08:11:42.303Z,95323.00
2023-05-18T08:12:42.297Z,95320.00
2023-05-18T08:13:42.312Z,95322.00
2023-05-18T08:14:42.260Z,95322.00
2023-05-18T08:15:42.278Z,95323.00
2023-05-18T08:16:42.333Z,95323.00
2023-05-18T08:17:42.432Z,95323.00
2023-05-18T08:18:42.318Z,95325.00
2023-05-18T08:19:42.225Z,95323.00
2023-05-18T08:20:42.235Z,95323.00
2023-05-18T08:21:42.240Z,95320.00
2023-05-18T08:22:42.232Z,95321.00
2023-05-18T08:23:42.193Z,95321.00
2023-05-18T08:24:42.194Z,95322.00
2023-05-18T08:25:42.181Z,95321.00
2023-05-18T08:26:42.187Z,95322.00
2023-05-18T08:27:42.182Z,95325.00
2023-05-18T08:28:42.240Z,95324.00
2023-05-18T08:29:42.174Z,95326.00
2023-05-18T08:30:42.175Z,95324.00
2023-05-18T08:31:42.145Z,95326.00
2023-05-18T08:32:42.202Z,95325.00
2023-05-18T08:33:42.115Z,95327.00
2023-05-18T08:34:42.133Z,95328.00
2023-05-18T08:35:42.139Z,95329.00
2023-05-18T08:36:42.150Z,95327.00
2023-05-18T08:37:42.116Z,95327.00
2023-05-18T08:38:42.096Z,95327.00
2023-05-18T08:39:42.135Z,95327.00
2023-05-18T08:40:42.106Z,95327.00
2023-05-18T08:41:42.120Z,95325.00
2023-05-18T08:42:50.018Z,95327.00
2023-05-18T08:43:43.073Z,95327.00
2023-05-18T08:44:42.054Z,95327.00
2023-05-18T08:45:42.059Z,95326.00
2023-05-18T08:46:42.070Z,95327.00
2023-05-18T08:47:42.124Z,95328.00
2023-05-18T08:48:42.146Z,95324.00
2023-05-18T08:49:42.034Z,95326.00
2023-05-18T08:50:42.016Z,95326.00
2023-05-18T08:51:42.017Z,95326.00
2023-05-18T08:52:41.995Z,95323.00
2023-05-18T08:53:41.990Z,95323.00
2023-05-18T08:54:41.994Z,95321.00
2023-05-18T08:55:42.004Z,95322.00
2023-05-18T08:56:41.999Z,95322.00
2023-05-18T08:57:42.025Z,95318.00
2023-05-18T08:58:41.958Z,95318.00
2023-05-18T08:59:41.977Z,95317.00
2023-05-18T09:00:41.966Z,95316.00
2023-05-18T09:01:41.978Z,95316.00
2023-05-18T09:02:41.971Z,95316.00
2023-05-18T09:03:41.958Z,95313.00
2023-05-18T09:04:41.988Z,95313.00
2023-05-18T09:05:41.956Z,95310.00
2023-05-18T09:06:41.965Z,95311.00
2023-05-18T09:07:41.929Z,95311.00
2023-05-18T09:08:41.928Z,95312.00
2023-05-18T09:09:41.941Z,95312.00
2023-05-18T09:10:41.929Z,95311.00
2023-05-18T09:11:41.901Z,95308.00
2023-05-18T09:12:41.903Z,95309.00
2023-05-18T09:13:41.897Z,95311.00
2023-05-18T09:14:41.879Z,95312.00
2023-05-18T09:15:41.886Z,95313.00
2023-05-18T09:16:41.871Z,95313.00
2023-05-18T09:17:41.926Z,95312.00
2023-05-18T09:18:41.882Z,95311.00
2023-05-18T09:19:41.832Z,95314.00
2023-05-18T09:20:41.869Z,95313.00
2023-05-18T09:21:41.856Z,95314.00
2023-05-18T09:22:41.846Z,95316.00
2023-05-18T09:23:41.860Z,95317.00
2023-05-18T09:24:41.858Z,95317.00
2023-05-18T09:25:41.851Z,95316.00
2023-05-18T09:26:41.907Z,95316.00
2023-05-18T09:27:41.932Z,95317.00
2023-05-18T09:28:41.959Z,95317.00
2023-05-18T09:29:42.022Z,95311.00
2023-05-18T09:30:42.074Z,95312.00
2023-05-18T09:31:42.145Z,95311.00
2023-05-18T09:32:42.230Z,95311.00
2023-05-18T09:33:42.302Z,95309.00
2023-05-18T09:34:42.339Z,95311.00
2023-05-18T09:35:42.382Z,95307.00
2023-05-18T09:36:42.419Z,95308.00
2023-05-18T09:37:42.435Z,95307.00
2023-05-18T09:38:42.453Z,95304.00
2023-05-18T09:39:42.486Z,95303.00
2023-05-18T09:40:42.583Z,95304.00
2023-05-18T09:41:42.606Z,95301.00
2023-05-18T09:42:42.620Z,95303.00
2023-05-18T09:43:42.663Z,95303.00
2023-05-18T09:44:42.720Z,95301.00
2023-05-18T09:45:42.730Z,95300.00
2023-05-18T09:46:42.821Z,95302.00
2023-05-18T09:47:42.834Z,95300.00
2023-05-18T09:48:42.788Z,95298.00
2023-05-18T09:49:42.863Z,95298.00
2023-05-18T09:50:42.826Z,95297.00
2023-05-18T09:51:42.851Z,95296.00
2023-05-18T09:52:42.918Z,95294.00
2023-05-18T09:53:42.937Z,95294.00
2023-05-18T09:54:42.947Z,95292.00
2023-05-18T09:55:42.988Z,95296.00
2023-05-18T09:56:42.971Z,95293.00
2023-05-18T09:57:43.047Z,95295.00
2023-05-18T09:58:43.083Z,95293.00
2023-05-18T09:59:43.126Z,95293.00
2023-05-18T10:00:43.248Z,95293.00
2023-05-18T10:01:43.235Z,95293.00
2023-05-18T10:02:43.398Z,95291.00
2023-05-18T10:03:43.340Z,95294.00
2023-05-18T10:04:43.594Z,95292.00
2023-05-18T10:05:43.458Z,95291.00
2023-05-18T10:06:43.516Z,95291.00
2023-05-18T10:07:43.555Z,95291.00
2023-05-18T10:08:43.606Z,95289.00
2023-05-18T10:09:43.654Z,95289.00
2023-05-18T10:10:43.728Z,95289.00
2023-05-18T10:11:43.747Z,95290.00
2023-05-18T10:12:43.827Z,95292.00
2023-05-18T10:13:43.892Z,95292.00
2023-05-18T10:14:44.021Z,95291.00
2023-05-18T10:15:43.997Z,95291.00
2023-05-18T10:16:44.091Z,95289.00
2023-05-18T10:17:44.179Z,95289.00
2023-05-18T10:18:44.236Z,95289.00
2023-05-18T10:19:44.248Z,95288.00
2023-05-18T10:20:44.301Z,95286.00
2023-05-18T10:21:44.364Z,95288.00
2023-05-18T10:22:44.610Z,95289.00
2023-05-18T10:23:44.487Z,95286.00
2023-05-18T10:24:44.549Z,95286.00
2023-05-18T10:25:44.616Z,95284.00
2023-05-18T10:26:44.669Z,95283.00
2023-05-18T10:27:44.740Z,95283.00
2023-05-18T10:28:44.808Z,95282.00
2023-05-18T10:29:44.863Z,95278.00
2023-05-18T10:30:44.955Z,95279.00
2023-05-18T10:31:44.981Z,95280.00
2023-05-18T10:32:45.092Z,95281.00
2023-05-18T10:33:45.111Z,95281.00
2023-05-18T10:34:45.146Z,95281.00
2023-05-18T10:35:45.266Z,95281.00
2023-05-18T10:36:45.293Z,95281.00
2023-05-18T10:37:45.357Z,95281.00
2023-05-18T10:38:45.522Z,95281.00
2023-05-18T10:39:45.539Z,95279.00
2023-05-18T10:40:45.553Z,95282.00
2023-05-18T10:41:45.647Z,95279.00
2023-05-18T10:42:45.725Z,95280.00
2023-05-18T10:43:45.753Z,95280.00
2023-05-18T10:44:45.814Z,95283.00
2023-05-18T10:45:45.870Z,95280.00
2023-05-18T10:46:46.024Z,95280.00
2023-05-18T10:47:46.195Z,95281.00
2023-05-18T10:48:47.546Z,95282.00
2023-05-18T10:49:46.128Z,95280.00
2023-05-18T10:50:46.186Z,95282.00
2023-05-18T10:51:46.266Z,95280.00
2023-05-18T10:52:46.303Z,95279.00
2023-05-18T10:53:46.397Z,95281.00
2023-05-18T10:54:46.445Z,95280.00
2023-05-18T10:55:46.537Z,95280.00
2023-05-18T10:56:46.547Z,95279.00
2023-05-18T10:57:46.587Z,95283.00
2023-05-18T10:58:46.641Z,95283.00
2023-05-18T10:59:48.238Z,95282.00
2023-05-18T11:00:46.777Z,95282.00
2023-05-18T11:01:46.866Z,95284.00
2023-05-18T11:02:46.921Z,95284.00
2023-05-18T11:03:46.936Z,95284.00
2023-05-18T11:04:47.035Z,95284.00
2023-05-18T11:05:47.074Z,95282.00
2023-05-18T11:06:47.143Z,95283.00
2023-05-18T11:07:47.149Z,95283.00
2023-05-18T11:08:47.229Z,95281.00
2023-05-18T11:09:47.279Z,95281.00
2023-05-18T11:10:47.405Z,95277.00
2023-05-18T11:11:47.394Z,95277.00
2023-05-18T11:12:47.462Z,95278.00
2023-05-18T11:13:47.519Z,95275.00
2023-05-18T11:14:47.553Z,95277.00
2023-05-18T11:15:47.715Z,95278.00
2023-05-18T11:16:47.739Z,95274.00
2023-05-18T11:17:47.814Z,95276.00
2023-05-18T11:18:47.832Z,95278.00
2023-05-18T11:19:47.809Z,95280.00
2023-05-18T11:20:47.862Z,95277.00
2023-05-18T11:21:47.938Z,95277.00
2023-05-18T11:22:48.008Z,95275.00
2023-05-18T11:23:48.002Z,95275.00
2023-05-18T11:24:48.085Z,95276.00
2023-05-18T11:25:48.099Z,95277.00
2023-05-18T11:26:48.172Z,95276.00
2023-05-18T11:27:48.216Z,95275.00
2023-05-18T11:28:49.726Z,95278.00
2023-05-18T11:29:48.341Z,95278.00
2023-05-18T11:30:48.362Z,95278.00
2023-05-18T11:31:48.471Z,95276.00
2023-05-18T11:32:48.628Z,95281.00
2023-05-18T11:33:48.572Z,95281.00
2023-05-18T11:34:48.552Z,95279.00
2023-05-18T11:35:48.606Z,95283.00
2023-05-18T11:36:48.637Z,95281.00
2023-05-18T11:37:48.645Z,95282.00
2023-05-18T11:38:48.707Z,95281.00
2023-05-18T11:39:58.410Z,95280.00
2023-05-18T11:40:49.760Z,95279.00
2023-05-18T11:41:48.729Z,95276.00
2023-05-18T11:42:48.741Z,95277.00
2023-05-18T11:43:48.736Z,95276.00
2023-05-18T11:44:48.719Z,95274.00
2023-05-18T11:45:48.709Z,95276.00